sensor_id;sensor_type;location;lat;lon;timestamp;P1;durP1;ratioP1;P2;durP2;ratioP2
31182;SDS011;17813;0.000;0.000;2022-07-23T00:02:08;5.00;;;4.60;;
31182;SDS011;17813;0.000;0.000;2022-07-23T00:04:35;4.93;;;4.53;;
31182;SDS011;17813;0.000;0.000;2022-07-23T00:07:02;5.83;;;4.87;;
31182;SDS011;17813;0.000;0.000;2022-07-23T00:09:29;5.00;;;4.60;;
31182;SDS011;17813;0.000;0.000;2022-07-23T00:11:56;5.47;;;4.97;;
31182;SDS011;17813;0.000;0.000;2022-07-23T00:14:23;5.57;;;5.00;;
31182;SDS011;17813;0.000;0.000;2022-07-23T00:16:50;5.10;;;4.70;;
31182;SDS011;17813;0.000;0.000;2022-07-23T00:19:17;4.93;;;4.53;;
31182;SDS011;17813;0.000;0.000;2022-07-23T00:21:44;5.03;;;4.57;;
31182;SDS011;17813;0.000;0.000;2022-07-23T00:24:11;5.20;;;4.80;;
31182;SDS011;17813;0.000;0.000;2022-07-23T00:26:38;5.30;;;4.90;;
31182;SDS011;17813;0.000;0.000;2022-07-23T00:29:05;5.30;;;4.80;;
31182;SDS011;17813;0.000;0.000;2022-07-23T00:31:32;5.07;;;4.67;;
31182;SDS011;17813;0.000;0.000;2022-07-23T00:33:59;5.87;;;4.97;;
31182;SDS011;17813;0.000;0.000;2022-07-23T00:36:29;6.10;;;5.03;;
31182;SDS011;17813;0.000;0.000;2022-07-23T00:38:59;5.47;;;4.97;;
31182;SDS011;17813;0.000;0.000;2022-07-23T00:41:26;5.40;;;5.00;;
31182;SDS011;17813;0.000;0.000;2022-07-23T00:43:54;5.93;;;5.43;;
31182;SDS011;17813;0.000;0.000;2022-07-23T00:46:44;6.13;;;5.17;;
31182;SDS011;17813;0.000;0.000;2022-07-23T00:49:20;5.40;;;4.90;;
31182;SDS011;17813;0.000;0.000;2022-07-23T00:51:49;6.10;;;5.60;;
31182;SDS011;17813;0.000;0.000;2022-07-23T00:54:19;5.87;;;5.37;;
31182;SDS011;17813;0.000;0.000;2022-07-23T00:56:48;5.47;;;5.00;;
31182;SDS011;17813;0.000;0.000;2022-07-23T00:59:15;5.07;;;4.57;;
31182;SDS011;17813;0.000;0.000;2022-07-23T01:01:42;6.07;;;5.40;;
31182;SDS011;17813;0.000;0.000;2022-07-23T01:04:14;5.53;;;4.97;;
31182;SDS011;17813;0.000;0.000;2022-07-23T01:06:42;7.67;;;5.40;;
31182;SDS011;17813;0.000;0.000;2022-07-23T01:09:13;5.83;;;5.30;;
31182;SDS011;17813;0.000;0.000;2022-07-23T01:11:41;6.27;;;5.70;;
31182;SDS011;17813;0.000;0.000;2022-07-23T01:14:09;5.90;;;5.30;;
31182;SDS011;17813;0.000;0.000;2022-07-23T01:16:46;6.07;;;5.50;;
31182;SDS011;17813;0.000;0.000;2022-07-23T01:19:14;5.87;;;5.37;;
31182;SDS011;17813;0.000;0.000;2022-07-23T01:21:43;5.63;;;5.13;;
31182;SDS011;17813;0.000;0.000;2022-07-23T01:24:13;6.80;;;5.63;;
31182;SDS011;17813;0.000;0.000;2022-07-23T01:26:43;6.17;;;5.57;;
31182;SDS011;17813;0.000;0.000;2022-07-23T01:29:11;6.10;;;5.60;;
31182;SDS011;17813;0.000;0.000;2022-07-23T01:31:39;6.03;;;5.53;;
31182;SDS011;17813;0.000;0.000;2022-07-23T01:34:07;5.57;;;5.17;;
31182;SDS011;17813;0.000;0.000;2022-07-23T01:36:35;6.27;;;5.67;;
31182;SDS011;17813;0.000;0.000;2022-07-23T01:39:03;5.97;;;5.30;;
31182;SDS011;17813;0.000;0.000;2022-07-23T01:41:31;5.83;;;5.33;;
31182;SDS011;17813;0.000;0.000;2022-07-23T01:44:03;5.60;;;5.07;;
31182;SDS011;17813;0.000;0.000;2022-07-23T01:46:30;6.67;;;5.27;;
31182;SDS011;17813;0.000;0.000;2022-07-23T01:48:57;6.60;;;5.90;;
31182;SDS011;17813;0.000;0.000;2022-07-23T01:51:24;7.03;;;6.33;;
31182;SDS011;17813;0.000;0.000;2022-07-23T01:53:54;6.10;;;5.63;;
31182;SDS011;17813;0.000;0.000;2022-07-23T01:56:20;7.77;;;6.10;;
31182;SDS011;17813;0.000;0.000;2022-07-23T01:58:48;5.60;;;5.10;;
31182;SDS011;17813;0.000;0.000;2022-07-23T02:01:16;7.50;;;5.13;;
31182;SDS011;17813;0.000;0.000;2022-07-23T02:03:45;6.20;;;5.50;;
31182;SDS011;17813;0.000;0.000;2022-07-23T02:06:12;6.87;;;5.53;;
31182;SDS011;17813;0.000;0.000;2022-07-23T02:08:38;6.23;;;5.73;;
31182;SDS011;17813;0.000;0.000;2022-07-23T02:11:05;5.80;;;5.30;;
31182;SDS011;17813;0.000;0.000;2022-07-23T02:13:32;6.00;;;5.50;;
31182;SDS011;17813;0.000;0.000;2022-07-23T02:16:00;7.20;;;5.33;;
31182;SDS011;17813;0.000;0.000;2022-07-23T02:18:27;5.50;;;5.10;;
31182;SDS011;17813;0.000;0.000;2022-07-23T02:20:54;5.77;;;5.23;;
31182;SDS011;17813;0.000;0.000;2022-07-23T02:23:21;6.10;;;5.50;;
31182;SDS011;17813;0.000;0.000;2022-07-23T02:25:47;6.33;;;5.83;;
31182;SDS011;17813;0.000;0.000;2022-07-23T02:28:14;6.00;;;5.40;;
31182;SDS011;17813;0.000;0.000;2022-07-23T02:30:41;5.40;;;5.00;;
31182;SDS011;17813;0.000;0.000;2022-07-23T02:33:08;5.90;;;5.30;;
31182;SDS011;17813;0.000;0.000;2022-07-23T02:35:35;6.20;;;5.60;;
31182;SDS011;17813;0.000;0.000;2022-07-23T02:38:02;5.97;;;5.37;;
31182;SDS011;17813;0.000;0.000;2022-07-23T02:40:30;7.23;;;5.80;;
31182;SDS011;17813;0.000;0.000;2022-07-23T02:42:57;5.70;;;5.30;;
31182;SDS011;17813;0.000;0.000;2022-07-23T02:45:24;5.90;;;5.40;;
31182;SDS011;17813;0.000;0.000;2022-07-23T02:47:51;6.17;;;5.37;;
31182;SDS011;17813;0.000;0.000;2022-07-23T02:50:18;5.47;;;5.07;;
31182;SDS011;17813;0.000;0.000;2022-07-23T02:52:45;5.60;;;5.10;;
31182;SDS011;17813;0.000;0.000;2022-07-23T02:55:12;5.60;;;5.20;;
31182;SDS011;17813;0.000;0.000;2022-07-23T02:57:39;5.73;;;5.23;;
31182;SDS011;17813;0.000;0.000;2022-07-23T03:00:06;10.30;;;5.27;;
31182;SDS011;17813;0.000;0.000;2022-07-23T03:02:34;5.83;;;5.27;;
31182;SDS011;17813;0.000;0.000;2022-07-23T03:05:01;5.90;;;5.40;;
31182;SDS011;17813;0.000;0.000;2022-07-23T03:07:31;7.77;;;5.93;;
31182;SDS011;17813;0.000;0.000;2022-07-23T03:10:10;6.83;;;6.23;;
31182;SDS011;17813;0.000;0.000;2022-07-23T03:12:37;6.57;;;5.97;;
31182;SDS011;17813;0.000;0.000;2022-07-23T03:15:04;6.13;;;5.63;;
31182;SDS011;17813;0.000;0.000;2022-07-23T03:17:31;6.50;;;5.90;;
31182;SDS011;17813;0.000;0.000;2022-07-23T03:19:59;6.50;;;6.00;;
31182;SDS011;17813;0.000;0.000;2022-07-23T03:22:25;6.10;;;5.53;;
31182;SDS011;17813;0.000;0.000;2022-07-23T03:24:52;6.20;;;5.70;;
31182;SDS011;17813;0.000;0.000;2022-07-23T03:27:29;6.77;;;5.83;;
31182;SDS011;17813;0.000;0.000;2022-07-23T03:29:57;6.17;;;5.67;;
31182;SDS011;17813;0.000;0.000;2022-07-23T03:32:25;7.13;;;6.50;;
31182;SDS011;17813;0.000;0.000;2022-07-23T03:34:52;6.70;;;6.00;;
31182;SDS011;17813;0.000;0.000;2022-07-23T03:37:20;7.53;;;6.27;;
31182;SDS011;17813;0.000;0.000;2022-07-23T03:39:47;6.90;;;6.20;;
31182;SDS011;17813;0.000;0.000;2022-07-23T03:42:14;6.10;;;5.60;;
31182;SDS011;17813;0.000;0.000;2022-07-23T03:44:41;6.23;;;5.60;;
31182;SDS011;17813;0.000;0.000;2022-07-23T03:47:09;10.10;;;6.90;;
31182;SDS011;17813;0.000;0.000;2022-07-23T03:49:36;6.67;;;6.07;;
31182;SDS011;17813;0.000;0.000;2022-07-23T03:52:03;7.10;;;6.50;;
31182;SDS011;17813;0.000;0.000;2022-07-23T03:54:30;6.13;;;5.63;;
31182;SDS011;17813;0.000;0.000;2022-07-23T03:56:57;7.40;;;6.47;;
31182;SDS011;17813;0.000;0.000;2022-07-23T03:59:24;6.90;;;6.20;;
31182;SDS011;17813;0.000;0.000;2022-07-23T04:01:51;7.20;;;6.20;;
31182;SDS011;17813;0.000;0.000;2022-07-23T04:04:18;6.60;;;5.90;;
31182;SDS011;17813;0.000;0.000;2022-07-23T04:06:45;7.23;;;6.53;;
31182;SDS011;17813;0.000;0.000;2022-07-23T04:09:12;7.10;;;6.40;;
31182;SDS011;17813;0.000;0.000;2022-07-23T04:11:44;12.73;;;6.97;;
31182;SDS011;17813;0.000;0.000;2022-07-23T04:14:12;7.23;;;6.53;;
31182;SDS011;17813;0.000;0.000;2022-07-23T04:16:38;8.03;;;7.20;;
31182;SDS011;17813;0.000;0.000;2022-07-23T04:19:05;7.60;;;6.90;;
31182;SDS011;17813;0.000;0.000;2022-07-23T04:21:32;7.70;;;7.07;;
31182;SDS011;17813;0.000;0.000;2022-07-23T04:23:59;8.97;;;8.07;;
31182;SDS011;17813;0.000;0.000;2022-07-23T04:26:26;9.20;;;8.30;;
31182;SDS011;17813;0.000;0.000;2022-07-23T04:28:53;8.43;;;7.63;;
31182;SDS011;17813;0.000;0.000;2022-07-23T04:31:20;8.50;;;7.63;;
31182;SDS011;17813;0.000;0.000;2022-07-23T04:33:47;9.13;;;7.23;;
31182;SDS011;17813;0.000;0.000;2022-07-23T04:36:14;8.43;;;7.60;;
31182;SDS011;17813;0.000;0.000;2022-07-23T04:38:46;7.17;;;6.30;;
31182;SDS011;17813;0.000;0.000;2022-07-23T04:41:13;7.83;;;6.40;;
31182;SDS011;17813;0.000;0.000;2022-07-23T04:43:40;6.63;;;6.13;;
31182;SDS011;17813;0.000;0.000;2022-07-23T04:46:06;6.83;;;6.23;;
31182;SDS011;17813;0.000;0.000;2022-07-23T04:48:33;6.60;;;6.00;;
31182;SDS011;17813;0.000;0.000;2022-07-23T04:51:00;6.40;;;5.80;;
31182;SDS011;17813;0.000;0.000;2022-07-23T04:53:27;9.53;;;5.93;;
31182;SDS011;17813;0.000;0.000;2022-07-23T04:55:54;7.83;;;6.13;;
31182;SDS011;17813;0.000;0.000;2022-07-23T04:58:22;6.27;;;5.67;;
31182;SDS011;17813;0.000;0.000;2022-07-23T05:00:49;6.10;;;5.60;;
31182;SDS011;17813;0.000;0.000;2022-07-23T05:03:16;8.27;;;6.40;;
31182;SDS011;17813;0.000;0.000;2022-07-23T05:05:44;6.13;;;5.53;;
31182;SDS011;17813;0.000;0.000;2022-07-23T05:08:10;6.63;;;5.70;;
31182;SDS011;17813;0.000;0.000;2022-07-23T05:10:37;6.10;;;5.47;;
31182;SDS011;17813;0.000;0.000;2022-07-23T05:13:04;6.23;;;5.60;;
31182;SDS011;17813;0.000;0.000;2022-07-23T05:15:32;9.23;;;5.73;;
31182;SDS011;17813;0.000;0.000;2022-07-23T05:18:00;6.03;;;5.43;;
31182;SDS011;17813;0.000;0.000;2022-07-23T05:20:27;5.53;;;4.90;;
31182;SDS011;17813;0.000;0.000;2022-07-23T05:22:54;5.20;;;4.70;;
31182;SDS011;17813;0.000;0.000;2022-07-23T05:25:21;6.77;;;5.23;;
31182;SDS011;17813;0.000;0.000;2022-07-23T05:27:48;5.33;;;4.83;;
31182;SDS011;17813;0.000;0.000;2022-07-23T05:30:16;5.77;;;5.13;;
31182;SDS011;17813;0.000;0.000;2022-07-23T05:32:43;5.13;;;4.70;;
31182;SDS011;17813;0.000;0.000;2022-07-23T05:35:10;5.43;;;4.93;;
31182;SDS011;17813;0.000;0.000;2022-07-23T05:37:37;5.83;;;4.87;;
31182;SDS011;17813;0.000;0.000;2022-07-23T05:40:06;5.40;;;4.90;;
31182;SDS011;17813;0.000;0.000;2022-07-23T05:42:37;5.17;;;4.40;;
31182;SDS011;17813;0.000;0.000;2022-07-23T05:45:05;5.17;;;4.67;;
31182;SDS011;17813;0.000;0.000;2022-07-23T05:47:48;5.30;;;4.80;;
31182;SDS011;17813;0.000;0.000;2022-07-23T05:50:15;6.33;;;4.53;;
31182;SDS011;17813;0.000;0.000;2022-07-23T05:52:43;4.70;;;4.30;;
31182;SDS011;17813;0.000;0.000;2022-07-23T05:55:19;5.63;;;4.40;;
31182;SDS011;17813;0.000;0.000;2022-07-23T05:57:48;4.60;;;4.00;;
31182;SDS011;17813;0.000;0.000;2022-07-23T06:00:16;5.13;;;4.57;;
31182;SDS011;17813;0.000;0.000;2022-07-23T06:02:43;6.60;;;4.40;;
31182;SDS011;17813;0.000;0.000;2022-07-23T06:05:11;5.10;;;4.33;;
31182;SDS011;17813;0.000;0.000;2022-07-23T06:07:38;4.77;;;4.23;;
31182;SDS011;17813;0.000;0.000;2022-07-23T06:10:05;5.43;;;4.90;;
31182;SDS011;17813;0.000;0.000;2022-07-23T06:12:36;7.07;;;4.43;;
31182;SDS011;17813;0.000;0.000;2022-07-23T06:15:03;4.63;;;4.23;;
31182;SDS011;17813;0.000;0.000;2022-07-23T06:17:31;5.47;;;4.53;;
31182;SDS011;17813;0.000;0.000;2022-07-23T06:20:01;4.73;;;4.17;;
31182;SDS011;17813;0.000;0.000;2022-07-23T06:22:28;5.53;;;4.43;;
31182;SDS011;17813;0.000;0.000;2022-07-23T06:24:55;4.40;;;4.00;;
31182;SDS011;17813;0.000;0.000;2022-07-23T06:27:22;4.87;;;3.83;;
31182;SDS011;17813;0.000;0.000;2022-07-23T06:29:49;5.13;;;4.63;;
31182;SDS011;17813;0.000;0.000;2022-07-23T06:32:16;4.57;;;4.15;;
31182;SDS011;17813;0.000;0.000;2022-07-23T06:34:43;5.13;;;4.63;;
31182;SDS011;17813;0.000;0.000;2022-07-23T06:37:09;4.70;;;4.30;;
31182;SDS011;17813;0.000;0.000;2022-07-23T06:39:37;5.70;;;4.10;;
31182;SDS011;17813;0.000;0.000;2022-07-23T06:42:04;4.80;;;4.30;;
31182;SDS011;17813;0.000;0.000;2022-07-23T06:44:31;5.30;;;4.47;;
31182;SDS011;17813;0.000;0.000;2022-07-23T06:46:59;5.90;;;4.47;;
31182;SDS011;17813;0.000;0.000;2022-07-23T06:49:26;4.63;;;4.23;;
31182;SDS011;17813;0.000;0.000;2022-07-23T06:51:52;5.13;;;4.40;;
31182;SDS011;17813;0.000;0.000;2022-07-23T06:54:19;4.80;;;4.40;;
31182;SDS011;17813;0.000;0.000;2022-07-23T06:56:46;7.10;;;4.70;;
31182;SDS011;17813;0.000;0.000;2022-07-23T06:59:14;6.33;;;4.60;;
31182;SDS011;17813;0.000;0.000;2022-07-23T07:01:42;5.73;;;5.20;;
31182;SDS011;17813;0.000;0.000;2022-07-23T07:04:09;5.20;;;4.70;;
31182;SDS011;17813;0.000;0.000;2022-07-23T07:06:40;5.82;;;4.80;;
31182;SDS011;17813;0.000;0.000;2022-07-23T07:09:07;5.47;;;4.78;;
31182;SDS011;17813;0.000;0.000;2022-07-23T07:11:36;4.95;;;4.45;;
31182;SDS011;17813;0.000;0.000;2022-07-23T07:14:04;5.80;;;4.68;;
31182;SDS011;17813;0.000;0.000;2022-07-23T07:16:34;5.70;;;4.40;;
31182;SDS011;17813;0.000;0.000;2022-07-23T07:19:01;5.72;;;4.57;;
31182;SDS011;17813;0.000;0.000;2022-07-23T07:21:30;4.65;;;3.75;;
31182;SDS011;17813;0.000;0.000;2022-07-23T07:23:57;5.25;;;4.00;;
31182;SDS011;17813;0.000;0.000;2022-07-23T07:26:24;5.72;;;4.05;;
31182;SDS011;17813;0.000;0.000;2022-07-23T07:28:52;5.65;;;4.00;;
31182;SDS011;17813;0.000;0.000;2022-07-23T07:31:19;4.65;;;4.13;;
31182;SDS011;17813;0.000;0.000;2022-07-23T07:33:45;5.78;;;4.20;;
31182;SDS011;17813;0.000;0.000;2022-07-23T07:36:13;4.28;;;3.97;;
31182;SDS011;17813;0.000;0.000;2022-07-23T07:38:40;5.05;;;3.60;;
31182;SDS011;17813;0.000;0.000;2022-07-23T07:41:07;6.50;;;4.07;;
31182;SDS011;17813;0.000;0.000;2022-07-23T07:43:36;6.15;;;4.20;;
31182;SDS011;17813;0.000;0.000;2022-07-23T07:46:03;4.57;;;4.10;;
31182;SDS011;17813;0.000;0.000;2022-07-23T07:48:31;4.45;;;4.00;;
31182;SDS011;17813;0.000;0.000;2022-07-23T07:50:58;5.03;;;4.50;;
31182;SDS011;17813;0.000;0.000;2022-07-23T07:53:25;4.90;;;4.28;;
31182;SDS011;17813;0.000;0.000;2022-07-23T07:55:52;4.80;;;4.30;;
31182;SDS011;17813;0.000;0.000;2022-07-23T07:58:19;4.55;;;4.10;;
31182;SDS011;17813;0.000;0.000;2022-07-23T08:00:46;5.63;;;4.60;;
31182;SDS011;17813;0.000;0.000;2022-07-23T08:03:13;5.30;;;4.80;;
31182;SDS011;17813;0.000;0.000;2022-07-23T08:05:41;5.10;;;4.60;;
31182;SDS011;17813;0.000;0.000;2022-07-23T08:08:08;4.85;;;4.45;;
31182;SDS011;17813;0.000;0.000;2022-07-23T08:10:40;5.10;;;4.60;;
31182;SDS011;17813;0.000;0.000;2022-07-23T08:13:10;5.40;;;4.68;;
31182;SDS011;17813;0.000;0.000;2022-07-23T08:15:43;5.13;;;4.07;;
31182;SDS011;17813;0.000;0.000;2022-07-23T08:18:10;5.72;;;5.00;;
31182;SDS011;17813;0.000;0.000;2022-07-23T08:20:38;6.00;;;4.30;;
31182;SDS011;17813;0.000;0.000;2022-07-23T08:23:06;4.35;;;3.95;;
31182;SDS011;17813;0.000;0.000;2022-07-23T08:25:34;4.72;;;4.25;;
31182;SDS011;17813;0.000;0.000;2022-07-23T08:28:12;4.90;;;4.30;;
31182;SDS011;17813;0.000;0.000;2022-07-23T08:30:40;4.53;;;4.13;;
31182;SDS011;17813;0.000;0.000;2022-07-23T08:33:09;4.15;;;3.85;;
31182;SDS011;17813;0.000;0.000;2022-07-23T08:35:50;4.55;;;4.00;;
31182;SDS011;17813;0.000;0.000;2022-07-23T08:38:20;5.18;;;4.38;;
31182;SDS011;17813;0.000;0.000;2022-07-23T08:40:48;4.68;;;3.90;;
31182;SDS011;17813;0.000;0.000;2022-07-23T08:43:21;4.80;;;3.70;;
31182;SDS011;17813;0.000;0.000;2022-07-23T08:45:52;4.30;;;3.90;;
31182;SDS011;17813;0.000;0.000;2022-07-23T08:48:25;4.78;;;4.35;;
31182;SDS011;17813;0.000;0.000;2022-07-23T08:50:55;7.55;;;4.07;;
31182;SDS011;17813;0.000;0.000;2022-07-23T08:53:24;5.05;;;4.38;;
31182;SDS011;17813;0.000;0.000;2022-07-23T08:55:54;4.90;;;4.13;;
31182;SDS011;17813;0.000;0.000;2022-07-23T08:58:24;6.43;;;4.90;;
31182;SDS011;17813;0.000;0.000;2022-07-23T09:00:52;4.50;;;4.10;;
31182;SDS011;17813;0.000;0.000;2022-07-23T09:03:20;4.70;;;4.20;;
31182;SDS011;17813;0.000;0.000;2022-07-23T09:05:52;6.72;;;4.10;;
31182;SDS011;17813;0.000;0.000;2022-07-23T09:08:23;4.70;;;4.30;;
31182;SDS011;17813;0.000;0.000;2022-07-23T09:11:02;6.22;;;4.40;;
31182;SDS011;17813;0.000;0.000;2022-07-23T09:13:34;7.07;;;4.40;;
31182;SDS011;17813;0.000;0.000;2022-07-23T09:16:15;4.38;;;3.97;;
31182;SDS011;17813;0.000;0.000;2022-07-23T09:19:02;5.95;;;5.13;;
31182;SDS011;17813;0.000;0.000;2022-07-23T09:21:32;5.90;;;4.88;;
31182;SDS011;17813;0.000;0.000;2022-07-23T09:24:00;8.35;;;5.18;;
31182;SDS011;17813;0.000;0.000;2022-07-23T09:29:16;5.47;;;4.10;;
31182;SDS011;17813;0.000;0.000;2022-07-23T09:34:21;5.20;;;4.70;;
31182;SDS011;17813;0.000;0.000;2022-07-23T09:36:51;5.22;;;4.72;;
31182;SDS011;17813;0.000;0.000;2022-07-23T09:39:30;5.43;;;4.45;;
31182;SDS011;17813;0.000;0.000;2022-07-23T09:44:46;5.28;;;4.75;;
31182;SDS011;17813;0.000;0.000;2022-07-23T09:47:15;5.10;;;4.70;;
31182;SDS011;17813;0.000;0.000;2022-07-23T09:52:27;4.93;;;4.53;;
31182;SDS011;17813;0.000;0.000;2022-07-23T09:54:59;5.40;;;4.90;;
31182;SDS011;17813;0.000;0.000;2022-07-23T09:57:28;5.20;;;4.72;;
31182;SDS011;17813;0.000;0.000;2022-07-23T09:59:58;5.35;;;4.85;;
31182;SDS011;17813;0.000;0.000;2022-07-23T10:02:37;5.43;;;4.53;;
31182;SDS011;17813;0.000;0.000;2022-07-23T10:05:05;5.05;;;4.60;;
31182;SDS011;17813;0.000;0.000;2022-07-23T10:07:33;4.95;;;4.45;;
31182;SDS011;17813;0.000;0.000;2022-07-23T10:10:06;5.53;;;4.40;;
31182;SDS011;17813;0.000;0.000;2022-07-23T10:12:36;5.40;;;4.70;;
31182;SDS011;17813;0.000;0.000;2022-07-23T10:15:21;5.70;;;5.20;;
31182;SDS011;17813;0.000;0.000;2022-07-23T10:17:53;5.60;;;5.10;;
31182;SDS011;17813;0.000;0.000;2022-07-23T10:20:20;5.85;;;5.30;;
31182;SDS011;17813;0.000;0.000;2022-07-23T10:22:51;7.28;;;6.47;;
31182;SDS011;17813;0.000;0.000;2022-07-23T10:25:41;6.30;;;5.78;;
31182;SDS011;17813;0.000;0.000;2022-07-23T10:28:51;6.30;;;5.80;;
31182;SDS011;17813;0.000;0.000;2022-07-23T10:32:02;6.70;;;6.07;;
31182;SDS011;17813;0.000;0.000;2022-07-23T10:34:50;7.13;;;6.43;;
31182;SDS011;17813;0.000;0.000;2022-07-23T10:37:39;7.18;;;6.25;;
31182;SDS011;17813;0.000;0.000;2022-07-23T10:40:12;6.85;;;6.25;;
31182;SDS011;17813;0.000;0.000;2022-07-23T10:42:59;7.45;;;6.28;;
31182;SDS011;17813;0.000;0.000;2022-07-23T10:45:31;6.38;;;5.88;;
31182;SDS011;17813;0.000;0.000;2022-07-23T10:50:44;6.82;;;6.03;;
31182;SDS011;17813;0.000;0.000;2022-07-23T10:53:53;5.97;;;5.47;;
31182;SDS011;17813;0.000;0.000;2022-07-23T10:59:20;6.32;;;5.75;;
31182;SDS011;17813;0.000;0.000;2022-07-23T11:01:47;6.38;;;5.43;;
31182;SDS011;17813;0.000;0.000;2022-07-23T11:04:15;9.27;;;6.72;;
31182;SDS011;17813;0.000;0.000;2022-07-23T11:15:06;5.82;;;5.32;;
31182;SDS011;17813;0.000;0.000;2022-07-23T11:20:23;6.57;;;5.97;;
31182;SDS011;17813;0.000;0.000;2022-07-23T11:22:52;6.03;;;5.47;;
31182;SDS011;17813;0.000;0.000;2022-07-23T11:27:54;7.55;;;6.95;;
31182;SDS011;17813;0.000;0.000;2022-07-23T11:33:17;9.55;;;8.75;;
31182;SDS011;17813;0.000;0.000;2022-07-23T11:36:01;10.63;;;9.68;;
31182;SDS011;17813;0.000;0.000;2022-07-23T11:38:32;8.50;;;7.63;;
31182;SDS011;17813;0.000;0.000;2022-07-23T11:41:00;10.20;;;9.30;;
31182;SDS011;17813;0.000;0.000;2022-07-23T11:43:29;9.60;;;8.80;;
31182;SDS011;17813;0.000;0.000;2022-07-23T11:45:58;10.23;;;9.43;;
31182;SDS011;17813;0.000;0.000;2022-07-23T11:48:26;10.82;;;9.90;;
31182;SDS011;17813;0.000;0.000;2022-07-23T11:51:00;12.10;;;10.90;;
31182;SDS011;17813;0.000;0.000;2022-07-23T11:53:31;10.35;;;9.40;;
31182;SDS011;17813;0.000;0.000;2022-07-23T11:56:07;9.23;;;8.40;;
31182;SDS011;17813;0.000;0.000;2022-07-23T11:58:36;11.10;;;10.20;;
31182;SDS011;17813;0.000;0.000;2022-07-23T12:01:04;10.35;;;9.52;;
31182;SDS011;17813;0.000;0.000;2022-07-23T12:03:31;10.25;;;9.45;;
31182;SDS011;17813;0.000;0.000;2022-07-23T12:05:59;10.38;;;9.57;;
31182;SDS011;17813;0.000;0.000;2022-07-23T12:08:26;9.77;;;8.95;;
31182;SDS011;17813;0.000;0.000;2022-07-23T12:10:54;8.73;;;8.05;;
31182;SDS011;17813;0.000;0.000;2022-07-23T12:13:22;8.75;;;8.05;;
31182;SDS011;17813;0.000;0.000;2022-07-23T12:15:50;8.65;;;7.95;;
31182;SDS011;17813;0.000;0.000;2022-07-23T12:18:28;9.10;;;8.40;;
31182;SDS011;17813;0.000;0.000;2022-07-23T12:20:57;9.35;;;8.30;;
31182;SDS011;17813;0.000;0.000;2022-07-23T12:23:28;8.50;;;7.70;;
31182;SDS011;17813;0.000;0.000;2022-07-23T12:25:59;8.82;;;8.05;;
31182;SDS011;17813;0.000;0.000;2022-07-23T12:28:31;8.70;;;8.00;;
31182;SDS011;17813;0.000;0.000;2022-07-23T12:30:59;8.68;;;7.88;;
31182;SDS011;17813;0.000;0.000;2022-07-23T12:33:39;8.18;;;7.57;;
31182;SDS011;17813;0.000;0.000;2022-07-23T12:36:07;8.43;;;7.72;;
31182;SDS011;17813;0.000;0.000;2022-07-23T12:38:40;8.40;;;7.70;;
31182;SDS011;17813;0.000;0.000;2022-07-23T12:41:17;9.20;;;8.40;;
31182;SDS011;17813;0.000;0.000;2022-07-23T12:43:45;8.90;;;8.20;;
31182;SDS011;17813;0.000;0.000;2022-07-23T12:46:19;8.18;;;7.38;;
31182;SDS011;17813;0.000;0.000;2022-07-23T12:53:56;8.70;;;8.00;;
31182;SDS011;17813;0.000;0.000;2022-07-23T12:56:32;8.57;;;7.88;;
31182;SDS011;17813;0.000;0.000;2022-07-23T13:01:40;9.00;;;8.20;;
31182;SDS011;17813;0.000;0.000;2022-07-23T13:06:59;8.10;;;7.43;;
31182;SDS011;17813;0.000;0.000;2022-07-23T13:09:28;8.38;;;7.68;;
31182;SDS011;17813;0.000;0.000;2022-07-23T13:11:59;8.65;;;7.88;;
31182;SDS011;17813;0.000;0.000;2022-07-23T13:14:42;8.10;;;7.38;;
31182;SDS011;17813;0.000;0.000;2022-07-23T13:17:11;7.80;;;7.20;;
31182;SDS011;17813;0.000;0.000;2022-07-23T13:19:37;7.57;;;6.97;;
31182;SDS011;17813;0.000;0.000;2022-07-23T13:22:05;8.05;;;7.35;;
31182;SDS011;17813;0.000;0.000;2022-07-23T13:24:31;8.63;;;7.82;;
31182;SDS011;17813;0.000;0.000;2022-07-23T13:27:05;8.15;;;7.35;;
31182;SDS011;17813;0.000;0.000;2022-07-23T13:29:33;7.55;;;6.95;;
31182;SDS011;17813;0.000;0.000;2022-07-23T13:32:00;8.57;;;7.80;;
31182;SDS011;17813;0.000;0.000;2022-07-23T13:34:27;8.48;;;7.78;;
31182;SDS011;17813;0.000;0.000;2022-07-23T13:36:54;8.70;;;8.02;;
31182;SDS011;17813;0.000;0.000;2022-07-23T13:39:21;10.07;;;8.77;;
31182;SDS011;17813;0.000;0.000;2022-07-23T13:41:48;9.32;;;8.52;;
31182;SDS011;17813;0.000;0.000;2022-07-23T13:44:15;9.98;;;9.13;;
31182;SDS011;17813;0.000;0.000;2022-07-23T13:46:42;10.07;;;9.27;;
31182;SDS011;17813;0.000;0.000;2022-07-23T13:49:09;10.52;;;9.68;;
31182;SDS011;17813;0.000;0.000;2022-07-23T13:51:36;10.73;;;9.93;;
31182;SDS011;17813;0.000;0.000;2022-07-23T13:54:03;9.20;;;8.50;;
31182;SDS011;17813;0.000;0.000;2022-07-23T13:56:31;10.13;;;9.32;;
31182;SDS011;17813;0.000;0.000;2022-07-23T13:58:57;10.57;;;9.77;;
31182;SDS011;17813;0.000;0.000;2022-07-23T14:01:27;9.52;;;8.73;;
31182;SDS011;17813;0.000;0.000;2022-07-23T14:03:55;9.82;;;9.02;;
31182;SDS011;17813;0.000;0.000;2022-07-23T14:06:22;10.25;;;9.38;;
31182;SDS011;17813;0.000;0.000;2022-07-23T14:08:49;9.88;;;9.07;;
31182;SDS011;17813;0.000;0.000;2022-07-23T14:11:17;9.85;;;9.05;;
31182;SDS011;17813;0.000;0.000;2022-07-23T14:13:45;9.40;;;8.40;;
31182;SDS011;17813;0.000;0.000;2022-07-23T14:16:12;8.93;;;8.23;;
31182;SDS011;17813;0.000;0.000;2022-07-23T14:18:39;8.68;;;7.97;;
31182;SDS011;17813;0.000;0.000;2022-07-23T14:21:07;8.95;;;8.15;;
31182;SDS011;17813;0.000;0.000;2022-07-23T14:23:36;8.32;;;7.70;;
31182;SDS011;17813;0.000;0.000;2022-07-23T14:26:05;9.48;;;8.70;;
31182;SDS011;17813;0.000;0.000;2022-07-23T14:28:38;7.72;;;7.13;;
31182;SDS011;17813;0.000;0.000;2022-07-23T14:31:06;7.75;;;7.15;;
31182;SDS011;17813;0.000;0.000;2022-07-23T14:33:34;7.20;;;6.63;;
31182;SDS011;17813;0.000;0.000;2022-07-23T14:36:05;7.10;;;6.60;;
31182;SDS011;17813;0.000;0.000;2022-07-23T14:38:38;6.63;;;5.95;;
31182;SDS011;17813;0.000;0.000;2022-07-23T14:41:08;6.55;;;6.05;;
31182;SDS011;17813;0.000;0.000;2022-07-23T14:43:37;6.97;;;5.97;;
31182;SDS011;17813;0.000;0.000;2022-07-23T14:46:04;7.13;;;6.53;;
31182;SDS011;17813;0.000;0.000;2022-07-23T14:48:33;7.05;;;6.45;;
31182;SDS011;17813;0.000;0.000;2022-07-23T14:51:02;7.40;;;6.80;;
31182;SDS011;17813;0.000;0.000;2022-07-23T14:53:35;6.38;;;5.88;;
31182;SDS011;17813;0.000;0.000;2022-07-23T14:56:03;6.72;;;6.22;;
31182;SDS011;17813;0.000;0.000;2022-07-23T14:58:30;7.55;;;6.95;;
31182;SDS011;17813;0.000;0.000;2022-07-23T15:00:58;7.20;;;6.60;;
31182;SDS011;17813;0.000;0.000;2022-07-23T15:03:25;7.80;;;7.20;;
31182;SDS011;17813;0.000;0.000;2022-07-23T15:05:53;6.90;;;6.20;;
31182;SDS011;17813;0.000;0.000;2022-07-23T15:08:19;7.63;;;7.03;;
31182;SDS011;17813;0.000;0.000;2022-07-23T15:10:47;7.45;;;6.85;;
31182;SDS011;17813;0.000;0.000;2022-07-23T15:13:14;7.50;;;6.75;;
31182;SDS011;17813;0.000;0.000;2022-07-23T15:15:47;7.00;;;6.30;;
31182;SDS011;17813;0.000;0.000;2022-07-23T15:18:15;6.57;;;6.07;;
31182;SDS011;17813;0.000;0.000;2022-07-23T15:20:44;6.38;;;5.85;;
31182;SDS011;17813;0.000;0.000;2022-07-23T15:23:11;6.05;;;5.55;;
31182;SDS011;17813;0.000;0.000;2022-07-23T15:25:38;5.90;;;5.40;;
31182;SDS011;17813;0.000;0.000;2022-07-23T15:28:05;7.25;;;5.93;;
31182;SDS011;17813;0.000;0.000;2022-07-23T15:30:34;6.07;;;5.57;;
31182;SDS011;17813;0.000;0.000;2022-07-23T15:33:01;5.90;;;5.50;;
31182;SDS011;17813;0.000;0.000;2022-07-23T15:35:30;5.97;;;5.40;;
31182;SDS011;17813;0.000;0.000;2022-07-23T15:38:03;5.70;;;5.30;;
31182;SDS011;17813;0.000;0.000;2022-07-23T15:40:42;5.82;;;5.25;;
31182;SDS011;17813;0.000;0.000;2022-07-23T15:43:11;5.95;;;5.45;;
31182;SDS011;17813;0.000;0.000;2022-07-23T15:45:39;6.53;;;6.03;;
31182;SDS011;17813;0.000;0.000;2022-07-23T15:48:09;6.55;;;6.05;;
31182;SDS011;17813;0.000;0.000;2022-07-23T15:50:38;6.05;;;5.55;;
31182;SDS011;17813;0.000;0.000;2022-07-23T15:53:07;6.18;;;5.68;;
31182;SDS011;17813;0.000;0.000;2022-07-23T15:55:35;6.22;;;5.63;;
31182;SDS011;17813;0.000;0.000;2022-07-23T15:58:06;6.00;;;5.50;;